Time;durP1;ratioP1;P1;durP2;ratioP2;P2;SDS_P1;SDS_P2;PMS_P1;PMS_P2;Temp;Humidity;BMP_temperature;BMP_pressure;BME280_temperature;BME280_humidity;BME280_pressure;Samples;Min_cycle;Max_cycle;Signal;HPM_P1;HPM_P2
2022/08/19 00:01:44;;;;;;;20.97;15.57;;;;;;;;;;4975889;28;20405;-49
2022/08/19 00:04:11;;;;;;;28.60;16.20;;;;;;;;;;4975943;28;20405;-48
2022/08/19 00:06:38;;;;;;;26.37;16.00;;;;;;;;;;4975954;28;20448;-49
2022/08/19 00:09:05;;;;;;;20.20;15.87;;;;;;;;;;4975467;28;20925;-49
2022/08/19 00:11:32;;;;;;;19.97;15.10;;;;;;;;;;4975700;28;20414;-49
2022/08/19 00:13:58;;;;;;;20.67;15.47;;;;;;;;;;4974600;28;20465;-49
2022/08/19 00:16:25;;;;;;;19.07;14.30;;;;;;;;;;4975649;28;20435;-49
2022/08/19 00:18:51;;;;;;;18.00;14.10;;;;;;;;;;4975339;28;20767;-49
2022/08/19 00:21:17;;;;;;;17.17;15.13;;;;;;;;;;4975954;28;20403;-49
2022/08/19 00:23:43;;;;;;;17.40;13.53;;;;;;;;;;4975465;28;20894;-49
2022/08/19 00:26:10;;;;;;;14.60;12.80;;;;;;;;;;4975377;28;20402;-49
2022/08/19 00:28:36;;;;;;;15.30;11.67;;;;;;;;;;4975259;28;20409;-49
2022/08/19 00:31:04;;;;;;;13.50;12.00;;;;;;;;;;4975477;28;20501;-49
2022/08/19 00:33:32;;;;;;;18.00;12.70;;;;;;;;;;4975289;28;20492;-49
2022/08/19 00:35:58;;;;;;;13.97;11.70;;;;;;;;;;4975162;28;20463;-50
2022/08/19 00:38:24;;;;;;;15.40;13.03;;;;;;;;;;4975190;28;20384;-50
2022/08/19 00:40:50;;;;;;;18.27;14.47;;;;;;;;;;4974991;28;20646;-49
2022/08/19 00:43:19;;;;;;;18.40;13.30;;;;;;;;;;4974186;28;20496;-50
2022/08/19 00:45:45;;;;;;;18.63;14.03;;;;;;;;;;4960043;28;20838;-49
2022/08/19 00:48:11;;;;;;;16.03;13.53;;;;;;;;;;4975053;28;20405;-48
2022/08/19 00:50:40;;;;;;;13.50;11.90;;;;;;;;;;4974904;28;20396;-49
2022/08/19 00:53:06;;;;;;;17.27;13.20;;;;;;;;;;4974851;28;20815;-50
2022/08/19 00:55:33;;;;;;;16.10;13.60;;;;;;;;;;4974670;28;20940;-48
2022/08/19 00:58:02;;;;;;;19.07;13.93;;;;;;;;;;4973990;28;20496;-49
2022/08/19 01:00:30;;;;;;;18.80;14.23;;;;;;;;;;4974608;28;20896;-49
2022/08/19 01:02:56;;;;;;;17.20;13.73;;;;;;;;;;4974384;28;20437;-50
2022/08/19 01:05:24;;;;;;;17.07;13.00;;;;;;;;;;4974302;28;20416;-51
2022/08/19 01:07:51;;;;;;;15.40;13.47;;;;;;;;;;4974481;28;20428;-50
2022/08/19 01:10:19;;;;;;;29.90;13.87;;;;;;;;;;4974596;28;20519;-50
2022/08/19 01:12:46;;;;;;;26.23;13.87;;;;;;;;;;4974492;28;20409;-49
2022/08/19 01:15:14;;;;;;;22.00;14.93;;;;;;;;;;4973402;28;20475;-48
2022/08/19 01:17:41;;;;;;;20.13;15.20;;;;;;;;;;4973755;28;20414;-48
2022/08/19 01:20:10;;;;;;;20.53;15.40;;;;;;;;;;4974243;28;20432;-49
2022/08/19 01:22:43;;;;;;;26.63;11.97;;;;;;;;;;4974373;28;20416;-49
2022/08/19 01:25:09;;;;;;;17.30;13.60;;;;;;;;;;4974433;28;20401;-49
2022/08/19 01:27:40;;;;;;;15.50;13.40;;;;;;;;;;4974284;28;20409;-49
2022/08/19 01:30:07;;;;;;;15.77;12.87;;;;;;;;;;4974090;28;20490;-50
2022/08/19 01:32:32;;;;;;;14.40;12.90;;;;;;;;;;4974289;28;20847;-49
2022/08/19 01:35:01;;;;;;;15.60;12.43;;;;;;;;;;4974011;28;20488;-49
2022/08/19 01:37:27;;;;;;;14.57;12.83;;;;;;;;;;4974256;28;20777;-48
2022/08/19 01:39:53;;;;;;;21.40;13.20;;;;;;;;;;4973883;28;20446;-48
2022/08/19 01:42:19;;;;;;;25.33;16.60;;;;;;;;;;4974091;28;20401;-49
2022/08/19 01:44:45;;;;;;;23.60;18.13;;;;;;;;;;4972850;28;20441;-49
2022/08/19 01:47:12;;;;;;;29.67;20.80;;;;;;;;;;4973967;28;20387;-49
2022/08/19 01:49:38;;;;;;;31.27;22.83;;;;;;;;;;4972819;28;20427;-49
2022/08/19 01:52:04;;;;;;;30.80;22.20;;;;;;;;;;4973754;28;20400;-49
2022/08/19 01:54:31;;;;;;;29.70;23.40;;;;;;;;;;4974047;28;20438;-49
2022/08/19 01:57:08;;;;;;;31.30;23.27;;;;;;;;;;4973788;28;20474;-49
2022/08/19 01:59:36;;;;;;;33.17;20.70;;;;;;;;;;4973503;28;20431;-49
2022/08/19 02:02:02;;;;;;;30.17;20.70;;;;;;;;;;4973806;28;20516;-50
2022/08/19 02:04:28;;;;;;;26.23;19.20;;;;;;;;;;4973659;28;20896;-50
2022/08/19 02:06:54;;;;;;;30.20;20.30;;;;;;;;;;4973592;28;20393;-49
2022/08/19 02:09:20;;;;;;;27.33;19.33;;;;;;;;;;4973181;28;20831;-48
2022/08/19 02:11:46;;;;;;;26.97;19.10;;;;;;;;;;4973565;28;20437;-49
2022/08/19 02:14:12;;;;;;;23.33;17.57;;;;;;;;;;4973494;28;20582;-49
2022/08/19 02:16:39;;;;;;;25.30;18.10;;;;;;;;;;4972324;28;20428;-48
2022/08/19 02:19:06;;;;;;;22.37;17.50;;;;;;;;;;4973240;28;20432;-48
2022/08/19 02:21:32;;;;;;;18.00;15.20;;;;;;;;;;4973450;28;20476;-49
2022/08/19 02:23:58;;;;;;;21.20;17.33;;;;;;;;;;4973458;28;20463;-49
2022/08/19 02:26:26;;;;;;;23.80;17.67;;;;;;;;;;4973313;28;20468;-49
2022/08/19 02:28:52;;;;;;;23.67;16.67;;;;;;;;;;4973134;28;20596;-50
2022/08/19 02:31:20;;;;;;;23.40;16.70;;;;;;;;;;4973167;28;20397;-49
2022/08/19 02:33:47;;;;;;;28.07;17.70;;;;;;;;;;4973335;28;20474;-49
2022/08/19 02:36:14;;;;;;;24.97;16.30;;;;;;;;;;4973044;28;20460;-49
2022/08/19 02:38:40;;;;;;;22.37;15.93;;;;;;;;;;4972921;28;20404;-49
2022/08/19 02:41:09;;;;;;;22.33;16.53;;;;;;;;;;4973429;28;20822;-48
2022/08/19 02:43:36;;;;;;;19.47;16.63;;;;;;;;;;4973606;28;20410;-49
2022/08/19 02:46:03;;;;;;;24.47;16.73;;;;;;;;;;4972150;28;20501;-49
2022/08/19 02:48:29;;;;;;;20.63;16.17;;;;;;;;;;4972328;28;20929;-48
2022/08/19 02:50:55;;;;;;;21.60;16.70;;;;;;;;;;4972878;28;20402;-49
2022/08/19 02:53:23;;;;;;;23.03;17.37;;;;;;;;;;4972975;28;20510;-50
2022/08/19 02:55:49;;;;;;;22.70;18.40;;;;;;;;;;4972864;28;20457;-49
2022/08/19 02:58:16;;;;;;;22.47;17.17;;;;;;;;;;4972928;28;20431;-49
2022/08/19 03:00:46;;;;;;;27.40;16.73;;;;;;;;;;4972700;28;20962;-49
2022/08/19 03:03:13;;;;;;;19.37;15.20;;;;;;;;;;4973033;28;20380;-51
2022/08/19 03:05:40;;;;;;;22.97;15.63;;;;;;;;;;4972849;28;20387;-50
2022/08/19 03:08:06;;;;;;;22.70;17.53;;;;;;;;;;4972945;28;20408;-49
2022/08/19 03:10:33;;;;;;;25.27;16.00;;;;;;;;;;4972647;28;20426;-48
2022/08/19 03:12:59;;;;;;;16.63;14.67;;;;;;;;;;4972741;28;20454;-49
2022/08/19 03:15:25;;;;;;;17.50;14.67;;;;;;;;;;4972729;28;20485;-50
2022/08/19 03:17:52;;;;;;;19.17;15.07;;;;;;;;;;4971462;28;20906;-49
2022/08/19 03:20:17;;;;;;;17.60;14.60;;;;;;;;;;4972515;28;20424;-49
2022/08/19 03:22:43;;;;;;;25.07;16.40;;;;;;;;;;4976486;28;20479;-49
2022/08/19 03:25:11;;;;;;;22.07;16.40;;;;;;;;;;4976533;28;20892;-48
2022/08/19 03:27:37;;;;;;;21.00;16.90;;;;;;;;;;4976539;28;20412;-48
2022/08/19 03:30:04;;;;;;;20.77;17.53;;;;;;;;;;4976277;28;20402;-49
2022/08/19 03:32:30;;;;;;;20.47;16.90;;;;;;;;;;4976513;28;20429;-50
2022/08/19 03:34:56;;;;;;;21.30;16.30;;;;;;;;;;4976301;28;20435;-50
2022/08/19 03:37:22;;;;;;;21.50;15.90;;;;;;;;;;4976392;28;20488;-49
2022/08/19 03:39:48;;;;;;;18.60;14.77;;;;;;;;;;4975955;28;20459;-49
2022/08/19 03:42:16;;;;;;;21.07;14.97;;;;;;;;;;4976377;28;20899;-48
2022/08/19 03:44:44;;;;;;;20.73;15.20;;;;;;;;;;4976192;28;20385;-48
2022/08/19 03:47:14;;;;;;;18.30;14.30;;;;;;;;;;4975209;28;20418;-48
2022/08/19 03:49:40;;;;;;;22.90;15.23;;;;;;;;;;4975241;28;20456;-50
2022/08/19 03:52:07;;;;;;;20.47;14.63;;;;;;;;;;4976256;28;20453;-49
2022/08/19 03:54:34;;;;;;;19.80;16.47;;;;;;;;;;4975840;28;20545;-49
2022/08/19 03:57:00;;;;;;;21.10;15.40;;;;;;;;;;4976253;28;20768;-49
2022/08/19 03:59:28;;;;;;;22.60;15.83;;;;;;;;;;4975766;28;20489;-49
2022/08/19 04:01:59;;;;;;;18.03;14.67;;;;;;;;;;4976189;28;20429;-50
2022/08/19 04:04:25;;;;;;;19.90;14.77;;;;;;;;;;4975981;28;20385;-48
2022/08/19 04:06:52;;;;;;;16.07;14.37;;;;;;;;;;4975780;28;20419;-49
2022/08/19 04:09:19;;;;;;;19.13;16.20;;;;;;;;;;4975446;28;20433;-49
2022/08/19 04:11:46;;;;;;;18.10;15.53;;;;;;;;;;4975775;28;20431;-49
2022/08/19 04:14:14;;;;;;;20.80;14.47;;;;;;;;;;4975695;28;20840;-50
2022/08/19 04:16:40;;;;;;;18.63;15.00;;;;;;;;;;4974763;28;20431;-49
2022/08/19 04:19:06;;;;;;;16.33;14.60;;;;;;;;;;4975388;28;20399;-50
2022/08/19 04:21:33;;;;;;;16.07;13.90;;;;;;;;;;4975525;28;20401;-49
2022/08/19 04:23:59;;;;;;;17.00;14.30;;;;;;;;;;4975462;28;20379;-49
2022/08/19 04:26:26;;;;;;;17.67;14.30;;;;;;;;;;4975422;28;20422;-50
2022/08/19 04:28:54;;;;;;;21.90;15.10;;;;;;;;;;4975101;28;20409;-47
2022/08/19 04:31:22;;;;;;;21.43;14.40;;;;;;;;;;4976354;28;20377;-51
2022/08/19 04:33:48;;;;;;;18.30;13.83;;;;;;;;;;4975332;28;20400;-52
2022/08/19 04:36:21;;;;;;;17.50;14.90;;;;;;;;;;4975098;28;20466;-53
2022/08/19 04:38:48;;;;;;;17.73;13.60;;;;;;;;;;4974890;28;20816;-52
2022/08/19 04:43:59;;;;;;;21.40;15.13;;;;;;;;;;4975494;28;20374;-51
2022/08/19 04:46:25;;;;;;;21.27;15.93;;;;;;;;;;4974104;28;20756;-52
2022/08/19 04:48:51;;;;;;;26.63;18.50;;;;;;;;;;4973862;28;20471;-51
2022/08/19 04:51:17;;;;;;;18.53;13.33;;;;;;;;;;4974949;28;20386;-52
2022/08/19 04:53:43;;;;;;;22.90;15.87;;;;;;;;;;4975182;28;20407;-52
2022/08/19 04:56:11;;;;;;;20.67;17.47;;;;;;;;;;4975049;28;20522;-51
2022/08/19 04:58:37;;;;;;;26.40;17.30;;;;;;;;;;4974544;28;20490;-51
2022/08/19 05:01:04;;;;;;;18.50;16.10;;;;;;;;;;4974834;28;20405;-52
2022/08/19 05:03:33;;;;;;;19.90;15.67;;;;;;;;;;4974755;28;20408;-53
2022/08/19 05:06:04;;;;;;;19.53;15.20;;;;;;;;;;4974637;28;20412;-50
2022/08/19 05:08:30;;;;;;;20.80;15.10;;;;;;;;;;4974647;28;20416;-51
2022/08/19 05:10:57;;;;;;;21.80;16.03;;;;;;;;;;4974527;28;20449;-52
2022/08/19 05:13:24;;;;;;;20.63;15.50;;;;;;;;;;4974648;28;20415;-52
2022/08/19 05:15:57;;;;;;;23.30;16.90;;;;;;;;;;4973304;28;20448;-52
2022/08/19 05:23:54;;;;;;;18.97;13.63;;;;;;;;;;4974510;28;20398;-52
2022/08/19 05:26:20;;;;;;;14.77;12.47;;;;;;;;;;4974164;28;20900;-53
2022/08/19 05:28:46;;;;;;;17.80;15.10;;;;;;;;;;4974084;28;20416;-52
2022/08/19 05:31:12;;;;;;;18.43;14.20;;;;;;;;;;4974480;28;20467;-52
2022/08/19 05:33:39;;;;;;;17.50;14.90;;;;;;;;;;4974335;28;20901;-53
2022/08/19 05:36:07;;;;;;;16.30;13.20;;;;;;;;;;4974043;28;20457;-51
2022/08/19 05:38:33;;;;;;;18.63;14.20;;;;;;;;;;4974077;28;20752;-51
2022/08/19 05:40:59;;;;;;;23.83;14.80;;;;;;;;;;4974002;28;20426;-53
2022/08/19 05:43:25;;;;;;;17.50;14.30;;;;;;;;;;4973593;28;20818;-52
2022/08/19 05:45:51;;;;;;;20.50;15.60;;;;;;;;;;4973972;28;20410;-53
2022/08/19 05:48:20;;;;;;;18.43;16.17;;;;;;;;;;4973065;28;20446;-51
2022/08/19 05:50:50;;;;;;;18.63;15.97;;;;;;;;;;4972860;28;20503;-49
2022/08/19 05:53:16;;;;;;;21.67;15.80;;;;;;;;;;4966802;28;20415;-52
2022/08/19 05:55:42;;;;;;;18.60;15.47;;;;;;;;;;4973585;28;20492;-52
2022/08/19 05:58:08;;;;;;;18.03;14.40;;;;;;;;;;4971006;28;20406;-50
2022/08/19 06:00:34;;;;;;;18.83;14.53;;;;;;;;;;4972335;28;20432;-50
2022/08/19 06:03:03;;;;;;;22.40;16.00;;;;;;;;;;4973387;28;20463;-52
2022/08/19 06:05:29;;;;;;;20.50;14.93;;;;;;;;;;4973304;28;20405;-51
2022/08/19 06:07:55;;;;;;;19.57;14.90;;;;;;;;;;4973560;28;20488;-50
2022/08/19 06:10:21;;;;;;;16.70;14.90;;;;;;;;;;4973393;28;20917;-51
2022/08/19 06:12:48;;;;;;;20.83;16.50;;;;;;;;;;4973558;28;20413;-51
2022/08/19 06:15:15;;;;;;;17.30;15.50;;;;;;;;;;4973699;28;20459;-50
2022/08/19 06:17:41;;;;;;;25.93;16.73;;;;;;;;;;4972090;28;20932;-51
2022/08/19 06:20:13;;;;;;;18.87;15.70;;;;;;;;;;4972440;28;20973;-51
2022/08/19 06:22:43;;;;;;;17.37;14.57;;;;;;;;;;4973926;28;20405;-52
2022/08/19 06:25:10;;;;;;;20.50;14.67;;;;;;;;;;4973275;28;20409;-51
2022/08/19 06:27:36;;;;;;;19.03;15.53;;;;;;;;;;4973378;28;20468;-52
2022/08/19 06:30:03;;;;;;;19.20;14.67;;;;;;;;;;4973033;28;20462;-51
2022/08/19 06:32:30;;;;;;;16.70;13.37;;;;;;;;;;4973226;28;20384;-52
2022/08/19 06:34:55;;;;;;;16.70;12.73;;;;;;;;;;4973001;28;20453;-51
2022/08/19 06:37:22;;;;;;;15.73;13.97;;;;;;;;;;4972173;28;20524;-51
2022/08/19 06:39:48;;;;;;;15.20;13.57;;;;;;;;;;4972943;28;20436;-51
2022/08/19 06:42:16;;;;;;;16.63;13.23;;;;;;;;;;4973268;28;20411;-52
2022/08/19 06:44:43;;;;;;;16.30;14.57;;;;;;;;;;4973305;28;20919;-53
2022/08/19 06:47:15;;;;;;;17.23;14.77;;;;;;;;;;4973127;28;20442;-52
2022/08/19 06:49:42;;;;;;;19.60;15.00;;;;;;;;;;4972837;28;20429;-51
2022/08/19 06:52:08;;;;;;;15.03;13.53;;;;;;;;;;4972974;28;20427;-52
2022/08/19 06:54:35;;;;;;;15.73;14.10;;;;;;;;;;4973001;28;20456;-52
2022/08/19 06:57:01;;;;;;;18.13;14.63;;;;;;;;;;4975945;28;20415;-51
2022/08/19 06:59:31;;;;;;;19.10;14.33;;;;;;;;;;4976933;28;21002;-51
2022/08/19 07:01:58;;;;;;;18.43;14.47;;;;;;;;;;4976949;28;20415;-51
2022/08/19 07:04:25;;;;;;;13.00;11.70;;;;;;;;;;4977018;28;20796;-52
2022/08/19 07:06:58;;;;;;;23.53;15.90;;;;;;;;;;4975810;28;20438;-50
2022/08/19 07:09:24;;;;;;;18.10;14.30;;;;;;;;;;4975881;28;20466;-52
2022/08/19 07:11:52;;;;;;;15.83;13.30;;;;;;;;;;4976892;28;20405;-51
2022/08/19 07:14:19;;;;;;;14.20;12.70;;;;;;;;;;4976815;28;20496;-52
2022/08/19 07:16:45;;;;;;;14.47;13.07;;;;;;;;;;4976634;28;20401;-53
2022/08/19 07:19:12;;;;;;;16.73;14.40;;;;;;;;;;4976387;28;20420;-52
2022/08/19 07:21:38;;;;;;;16.27;13.30;;;;;;;;;;4976649;28;20468;-52
2022/08/19 07:24:04;;;;;;;12.33;11.03;;;;;;;;;;4976608;28;20405;-51
2022/08/19 07:26:31;;;;;;;12.40;11.30;;;;;;;;;;4976956;28;20412;-52
2022/08/19 07:28:59;;;;;;;18.63;11.60;;;;;;;;;;4976225;28;21003;-52
2022/08/19 07:31:26;;;;;;;11.83;10.63;;;;;;;;;;4976485;28;20416;-49
2022/08/19 07:33:54;;;;;;;12.30;11.00;;;;;;;;;;4976397;28;20417;-50
2022/08/19 07:36:21;;;;;;;12.97;11.63;;;;;;;;;;4976498;28;20990;-52
2022/08/19 07:38:48;;;;;;;14.97;12.53;;;;;;;;;;4975055;28;20428;-50
2022/08/19 07:41:16;;;;;;;14.90;12.90;;;;;;;;;;4975560;28;20428;-51
2022/08/19 07:43:43;;;;;;;14.20;12.70;;;;;;;;;;4976192;28;20437;-50
2022/08/19 07:46:09;;;;;;;12.63;11.30;;;;;;;;;;4976168;28;20459;-51
2022/08/19 07:48:36;;;;;;;11.30;10.10;;;;;;;;;;4975829;28;20413;-51
2022/08/19 07:51:03;;;;;;;12.70;8.87;;;;;;;;;;4976144;28;20413;-53
2022/08/19 07:53:30;;;;;;;10.60;9.50;;;;;;;;;;4976067;28;20517;-52
2022/08/19 07:56:03;;;;;;;11.53;8.83;;;;;;;;;;4971600;28;20496;-50
2022/08/19 07:58:29;;;;;;;10.40;9.27;;;;;;;;;;4973785;28;20439;-53
2022/08/19 08:00:55;;;;;;;9.70;7.37;;;;;;;;;;4975685;28;20436;-52
2022/08/19 08:09:10;;;;;;;8.30;7.47;;;;;;;;;;4975831;28;20401;-52
2022/08/19 08:09:11;;;;;;;7.63;6.47;;;;;;;;;;4974761;28;20755;-52
2022/08/19 08:11:58;;;;;;;8.73;6.00;;;;;;;;;;4975779;28;20508;-51
2022/08/19 08:14:26;;;;;;;7.10;6.20;;;;;;;;;;4975690;28;20404;-53
2022/08/19 08:16:52;;;;;;;7.67;5.90;;;;;;;;;;4975569;28;20943;-51
2022/08/19 08:19:23;;;;;;;6.00;5.50;;;;;;;;;;4975255;28;20427;-53
2022/08/19 08:21:49;;;;;;;9.03;5.60;;;;;;;;;;4975600;28;20901;-52
2022/08/19 08:24:15;;;;;;;10.20;9.00;;;;;;;;;;4975399;28;20412;-51
2022/08/19 08:26:43;;;;;;;9.60;7.83;;;;;;;;;;4975426;28;20409;-51
2022/08/19 08:29:12;;;;;;;9.47;6.00;;;;;;;;;;4975144;28;20933;-52
2022/08/19 08:31:39;;;;;;;8.33;7.30;;;;;;;;;;4975182;28;20499;-51
2022/08/19 08:34:05;;;;;;;10.30;9.17;;;;;;;;;;4975335;28;20401;-53
2022/08/19 08:36:33;;;;;;;11.60;9.40;;;;;;;;;;4974006;28;20470;-52
2022/08/19 08:38:59;;;;;;;11.77;10.67;;;;;;;;;;4974970;28;20432;-51
2022/08/19 08:41:37;;;;;;;11.57;10.43;;;;;;;;;;4974032;28;20436;-52
2022/08/19 08:44:04;;;;;;;15.37;11.93;;;;;;;;;;4975060;28;20440;-50
2022/08/19 08:46:33;;;;;;;12.50;11.20;;;;;;;;;;4974997;28;20791;-53
2022/08/19 08:49:07;;;;;;;9.70;8.03;;;;;;;;;;4974784;28;20421;-52
2022/08/19 08:51:35;;;;;;;12.50;9.47;;;;;;;;;;4974947;28;20421;-53
2022/08/19 08:54:03;;;;;;;18.30;12.60;;;;;;;;;;4975108;28;20500;-52
2022/08/19 08:56:30;;;;;;;12.67;11.13;;;;;;;;;;4974849;28;20456;-52
2022/08/19 08:59:01;;;;;;;16.10;13.60;;;;;;;;;;4974430;28;20940;-52
2022/08/19 09:01:27;;;;;;;13.37;10.97;;;;;;;;;;4974786;28;20778;-53
2022/08/19 09:03:54;;;;;;;11.57;9.07;;;;;;;;;;4974824;28;20412;-53
2022/08/19 09:06:26;;;;;;;10.77;8.67;;;;;;;;;;4974691;28;20413;-52
2022/08/19 09:09:06;;;;;;;11.57;9.50;;;;;;;;;;4974314;28;20413;-53
2022/08/19 09:11:41;;;;;;;10.57;9.57;;;;;;;;;;4973628;28;21016;-51
2022/08/19 09:14:07;;;;;;;7.70;6.97;;;;;;;;;;4973788;28;20495;-52
2022/08/19 09:16:34;;;;;;;13.60;9.60;;;;;;;;;;4974508;28;20825;-53
2022/08/19 09:19:03;;;;;;;12.10;10.70;;;;;;;;;;4973379;28;20189;-50
2022/08/19 09:21:29;;;;;;;11.33;9.57;;;;;;;;;;4974304;28;20405;-52
2022/08/19 09:23:57;;;;;;;11.70;9.83;;;;;;;;;;4974366;28;20491;-52
2022/08/19 09:26:23;;;;;;;8.53;7.73;;;;;;;;;;4974307;28;20448;-51
2022/08/19 09:28:52;;;;;;;10.40;9.00;;;;;;;;;;4974118;28;20401;-52
2022/08/19 09:31:19;;;;;;;13.47;12.17;;;;;;;;;;4974095;28;20405;-53
2022/08/19 09:33:46;;;;;;;14.63;13.13;;;;;;;;;;4973588;28;20793;-52
2022/08/19 09:36:13;;;;;;;15.87;14.27;;;;;;;;;;4972990;28;20456;-53
2022/08/19 09:38:44;;;;;;;15.00;11.63;;;;;;;;;;4972130;28;20497;-53
2022/08/19 09:41:13;;;;;;;20.10;16.07;;;;;;;;;;4973225;28;20425;-53
2022/08/19 09:43:40;;;;;;;14.87;13.23;;;;;;;;;;4973398;28;20936;-53
2022/08/19 09:46:08;;;;;;;18.63;15.10;;;;;;;;;;4973923;28;20972;-53
2022/08/19 09:48:35;;;;;;;18.60;16.60;;;;;;;;;;4973790;28;20417;-51
2022/08/19 09:51:17;;;;;;;17.33;15.70;;;;;;;;;;4973824;28;20929;-53
2022/08/19 09:53:46;;;;;;;21.37;15.00;;;;;;;;;;4973922;28;20416;-51
2022/08/19 09:56:12;;;;;;;18.53;16.60;;;;;;;;;;4973701;28;20503;-53
2022/08/19 09:58:39;;;;;;;20.23;14.03;;;;;;;;;;4973609;28;21090;-53
2022/08/19 10:01:06;;;;;;;13.90;12.40;;;;;;;;;;4973650;28;20412;-51
2022/08/19 10:03:33;;;;;;;14.40;13.00;;;;;;;;;;4973947;28;20409;-51
2022/08/19 10:05:59;;;;;;;14.33;12.33;;;;;;;;;;4973602;28;20775;-52
2022/08/19 10:08:28;;;;;;;14.67;13.13;;;;;;;;;;4973473;28;20476;-52
2022/08/19 10:10:55;;;;;;;17.77;15.60;;;;;;;;;;4973432;28;20425;-52
2022/08/19 10:13:24;;;;;;;17.33;15.70;;;;;;;;;;4972477;28;20443;-51
2022/08/19 10:15:51;;;;;;;16.20;14.53;;;;;;;;;;4972526;28;21010;-53
2022/08/19 10:18:17;;;;;;;14.00;12.60;;;;;;;;;;4973747;28;20397;-52
2022/08/19 10:20:45;;;;;;;16.33;14.60;;;;;;;;;;4973191;28;20424;-53
2022/08/19 10:23:11;;;;;;;14.27;12.90;;;;;;;;;;4973338;28;20877;-52
2022/08/19 10:25:37;;;;;;;12.50;11.00;;;;;;;;;;4973380;28;20460;-51
2022/08/19 10:28:04;;;;;;;12.00;10.77;;;;;;;;;;4973392;28;20444;-50
2022/08/19 10:30:30;;;;;;;13.23;11.17;;;;;;;;;;4972617;28;20453;-52
2022/08/19 10:32:56;;;;;;;13.60;10.43;;;;;;;;;;4973296;28;20889;-53
2022/08/19 10:35:22;;;;;;;10.00;9.00;;;;;;;;;;4973059;28;20471;-51
2022/08/19 10:37:48;;;;;;;10.60;9.63;;;;;;;;;;4973251;28;20767;-52
2022/08/19 10:40:14;;;;;;;10.57;9.33;;;;;;;;;;4972870;28;20423;-52
2022/08/19 10:42:40;;;;;;;10.23;9.33;;;;;;;;;;4972609;28;20429;-51
2022/08/19 10:45:06;;;;;;;9.53;8.73;;;;;;;;;;4972947;28;20413;-50
2022/08/19 10:47:33;;;;;;;10.47;9.37;;;;;;;;;;4973025;28;20484;-51
2022/08/19 10:52:46;;;;;;;11.00;10.00;;;;;;;;;;4973261;28;20519;-52
2022/08/19 10:57:57;;;;;;;11.87;10.67;;;;;;;;;;4973437;28;20455;-52
2022/08/19 11:00:23;;;;;;;9.93;9.03;;;;;;;;;;4972614;28;20423;-52
2022/08/19 11:02:50;;;;;;;10.70;9.57;;;;;;;;;;4971550;28;20449;-51
2022/08/19 11:05:16;;;;;;;11.57;10.37;;;;;;;;;;4972802;28;20405;-50
2022/08/19 11:07:44;;;;;;;8.80;8.07;;;;;;;;;;4972678;28;20415;-49
2022/08/19 11:10:11;;;;;;;9.00;8.27;;;;;;;;;;4972511;28;20421;-50
2022/08/19 11:12:40;;;;;;;11.03;7.50;;;;;;;;;;4971821;28;20405;-53
2022/08/19 11:15:10;;;;;;;7.80;7.20;;;;;;;;;;4959364;28;20464;-53
2022/08/19 11:17:40;;;;;;;15.90;9.83;;;;;;;;;;4972796;28;20496;-51
2022/08/19 11:20:06;;;;;;;8.27;7.00;;;;;;;;;;4972540;28;20515;-53
2022/08/19 11:22:33;;;;;;;8.33;7.53;;;;;;;;;;4972592;28;20774;-52
2022/08/19 11:24:58;;;;;;;9.70;8.60;;;;;;;;;;4972661;28;20904;-53
2022/08/19 11:27:24;;;;;;;10.47;9.57;;;;;;;;;;4972845;28;20492;-52
2022/08/19 11:29:52;;;;;;;7.93;7.13;;;;;;;;;;4972425;28;20983;-53
2022/08/19 11:32:18;;;;;;;9.27;8.47;;;;;;;;;;4972660;28;20415;-53
2022/08/19 11:34:44;;;;;;;11.53;10.17;;;;;;;;;;4972418;28;20551;-52
2022/08/19 11:37:10;;;;;;;7.53;6.83;;;;;;;;;;4972473;28;20405;-50
2022/08/19 11:39:37;;;;;;;11.20;10.13;;;;;;;;;;4972264;28;20436;-52
2022/08/19 11:44:49;;;;;;;11.60;10.40;;;;;;;;;;4975724;28;20431;-50
2022/08/19 11:47:15;;;;;;;10.53;9.53;;;;;;;;;;4976200;28;20405;-50
2022/08/19 11:49:42;;;;;;;10.60;9.70;;;;;;;;;;4975526;28;20607;-49
2022/08/19 11:52:08;;;;;;;12.77;10.70;;;;;;;;;;4974233;28;20425;-49
2022/08/19 11:54:34;;;;;;;11.17;10.10;;;;;;;;;;4974524;28;20389;-49
2022/08/19 11:57:00;;;;;;;11.43;10.13;;;;;;;;;;4975143;28;20409;-50
2022/08/19 11:59:27;;;;;;;10.97;9.80;;;;;;;;;;4975624;28;20900;-51
2022/08/19 12:01:53;;;;;;;10.23;9.17;;;;;;;;;;4975868;28;20768;-49
2022/08/19 12:04:19;;;;;;;10.07;9.17;;;;;;;;;;4975570;28;20409;-49
2022/08/19 12:06:44;;;;;;;10.80;9.23;;;;;;;;;;4975755;28;20409;-51
2022/08/19 12:09:11;;;;;;;10.77;9.77;;;;;;;;;;4975562;28;20841;-50
2022/08/19 12:11:38;;;;;;;9.63;8.83;;;;;;;;;;4975693;28;20397;-49
2022/08/19 12:14:04;;;;;;;10.03;9.10;;;;;;;;;;4974633;28;20428;-50
2022/08/19 12:16:32;;;;;;;11.97;10.77;;;;;;;;;;4975515;28;20530;-50
2022/08/19 12:19:03;;;;;;;9.20;8.40;;;;;;;;;;4975282;28;20425;-49
2022/08/19 12:21:29;;;;;;;8.57;7.73;;;;;;;;;;4975304;28;20409;-51
2022/08/19 12:23:57;;;;;;;8.30;7.50;;;;;;;;;;4974134;28;20904;-50
2022/08/19 12:26:24;;;;;;;9.63;8.63;;;;;;;;;;4975073;28;20409;-50
2022/08/19 12:28:50;;;;;;;8.23;7.50;;;;;;;;;;4975172;28;20480;-50
2022/08/19 12:31:17;;;;;;;9.27;8.00;;;;;;;;;;4975234;28;20496;-50
2022/08/19 12:33:43;;;;;;;9.10;8.17;;;;;;;;;;4975332;28;20192;-49
2022/08/19 12:36:10;;;;;;;11.87;8.07;;;;;;;;;;4975158;28;20461;-49
2022/08/19 12:38:37;;;;;;;7.53;6.93;;;;;;;;;;4975028;28;20402;-50
2022/08/19 12:41:06;;;;;;;8.10;7.13;;;;;;;;;;4975654;28;20408;-49
2022/08/19 12:43:32;;;;;;;6.57;6.07;;;;;;;;;;4974027;28;20463;-50
2022/08/19 12:45:58;;;;;;;7.63;6.27;;;;;;;;;;4973093;28;20433;-49
2022/08/19 12:48:24;;;;;;;9.37;6.50;;;;;;;;;;4973230;28;20425;-51
2022/08/19 12:50:50;;;;;;;6.57;6.07;;;;;;;;;;4974820;28;20247;-49
2022/08/19 12:53:17;;;;;;;6.67;6.17;;;;;;;;;;4973684;28;20535;-50
2022/08/19 12:55:43;;;;;;;6.63;5.60;;;;;;;;;;4974181;28;20189;-49
2022/08/19 12:58:09;;;;;;;7.17;5.70;;;;;;;;;;4974637;28;20401;-50
2022/08/19 13:00:35;;;;;;;5.00;4.60;;;;;;;;;;4972602;28;20925;-50
2022/08/19 13:03:02;;;;;;;5.50;5.07;;;;;;;;;;4971675;28;20468;-50
2022/08/19 13:05:29;;;;;;;5.50;5.10;;;;;;;;;;4972817;28;20420;-50
2022/08/19 13:07:56;;;;;;;6.60;6.00;;;;;;;;;;4972791;28;20528;-49
2022/08/19 13:10:24;;;;;;;10.20;5.60;;;;;;;;;;4972845;28;20431;-50
2022/08/19 13:12:51;;;;;;;6.20;5.70;;;;;;;;;;4974185;28;20412;-49
2022/08/19 13:15:20;;;;;;;9.13;4.83;;;;;;;;;;4972456;28;20680;-49
2022/08/19 13:17:47;;;;;;;5.80;5.30;;;;;;;;;;4974389;28;20847;-49
2022/08/19 13:20:14;;;;;;;5.20;4.70;;;;;;;;;;4973953;28;20427;-49
2022/08/19 13:22:40;;;;;;;3.90;3.60;;;;;;;;;;4972891;28;20913;-49
2022/08/19 13:25:06;;;;;;;4.50;4.10;;;;;;;;;;4973970;28;20427;-49
2022/08/19 13:27:32;;;;;;;4.37;4.07;;;;;;;;;;4974053;28;20404;-49
2022/08/19 13:35:28;;;;;;;5.20;4.80;;;;;;;;;;4973993;28;20456;-50
2022/08/19 13:37:54;;;;;;;4.57;4.20;;;;;;;;;;4972785;28;20404;-50
2022/08/19 13:40:23;;;;;;;6.47;4.60;;;;;;;;;;4952961;28;20662;-52
2022/08/19 13:42:50;;;;;;;4.23;3.93;;;;;;;;;;4957232;28;20433;-50
2022/08/19 13:45:17;;;;;;;4.70;4.30;;;;;;;;;;4971330;28;20409;-50
2022/08/19 13:47:45;;;;;;;5.20;4.83;;;;;;;;;;4972412;28;20492;-50
2022/08/19 13:50:16;;;;;;;5.00;4.60;;;;;;;;;;4971741;28;20429;-50
2022/08/19 13:52:42;;;;;;;4.70;4.30;;;;;;;;;;4972247;28;20429;-52
2022/08/19 13:55:09;;;;;;;6.63;5.30;;;;;;;;;;4972984;28;20456;-51
2022/08/19 13:57:38;;;;;;;12.20;5.20;;;;;;;;;;4973882;28;20433;-52
2022/08/19 14:00:05;;;;;;;5.13;4.83;;;;;;;;;;4966954;28;20470;-50
2022/08/19 14:02:31;;;;;;;4.83;4.53;;;;;;;;;;4973667;28;20495;-53
2022/08/19 14:04:58;;;;;;;5.00;4.60;;;;;;;;;;4973065;28;20429;-53
2022/08/19 14:07:24;;;;;;;6.07;4.83;;;;;;;;;;4973670;28;20447;-52
2022/08/19 14:09:51;;;;;;;5.53;4.83;;;;;;;;;;4973186;28;20877;-50
2022/08/19 14:12:20;;;;;;;5.33;4.70;;;;;;;;;;4973576;28;20413;-52
2022/08/19 14:14:47;;;;;;;4.43;4.13;;;;;;;;;;4972333;28;20996;-52
2022/08/19 14:17:13;;;;;;;6.30;4.17;;;;;;;;;;4972663;28;20433;-52
2022/08/19 14:19:39;;;;;;;10.77;4.57;;;;;;;;;;4972982;28;20935;-50
2022/08/19 14:22:05;;;;;;;4.10;3.80;;;;;;;;;;4973246;28;20409;-52
2022/08/19 14:24:31;;;;;;;3.90;3.60;;;;;;;;;;4973281;28;20625;-52
2022/08/19 14:26:58;;;;;;;3.83;3.63;;;;;;;;;;4973356;28;20442;-52
2022/08/19 14:29:24;;;;;;;4.67;4.30;;;;;;;;;;4973129;28;20468;-52
2022/08/19 14:31:50;;;;;;;4.83;4.53;;;;;;;;;;4973284;28;20907;-53
2022/08/19 14:34:16;;;;;;;4.50;4.10;;;;;;;;;;4973210;28;20409;-52
2022/08/19 14:36:42;;;;;;;4.10;3.80;;;;;;;;;;4973040;28;20459;-52
2022/08/19 14:39:09;;;;;;;4.30;3.90;;;;;;;;;;4972828;28;20424;-52
2022/08/19 14:41:35;;;;;;;4.57;4.17;;;;;;;;;;4973050;28;20409;-52
2022/08/19 14:44:01;;;;;;;5.03;4.57;;;;;;;;;;4969353;28;20433;-52
2022/08/19 14:46:28;;;;;;;4.83;4.33;;;;;;;;;;4972687;28;20516;-52
2022/08/19 14:48:55;;;;;;;5.23;4.73;;;;;;;;;;4970727;28;20542;-50